Haworth, Oklahoma
Current Conditions -  °F | °C
As of 1:35 AM on Wednesday 22 Oct 2014 (Local Time) from K4O4 Reporting Station
Broken Clouds Broken Clouds  
Wind Chill: 63°   Ceiling: 3800
Heat Index: 63°   Visibility: 10mi
Dew Point: 61°   Wind: 7mph
Humidity: 94%   Direction: 110°ESE
Pressure: 30.09"   Gusts: NA
Location:  33.85°N, 94.65°W
Report Text: K4O4 220635Z AUTO 11006KT 10SM BKN038 BKN055 17/16 A3009 RMK AO2
Loading
Personal Weather Stations






























Interactive Weather Map
Tropical Storm Tracking
New forecast layout! Learn more

10-Day Weather Forecast

Advertisements
Track Severe Weather on mobile